sensor_id;sensor_type;location;lat;lon;timestamp;temperature;humidity
25154;DHT22;47555;51.038;6.280;2022-09-27T00:00:21;10.30;99.90
25154;DHT22;47555;51.038;6.280;2022-09-27T00:02:47;10.30;99.90
25154;DHT22;47555;51.038;6.280;2022-09-27T00:05:14;10.30;99.90
25154;DHT22;47555;51.038;6.280;2022-09-27T00:07:39;10.30;99.90
25154;DHT22;47555;51.038;6.280;2022-09-27T00:10:05;10.30;99.90
25154;DHT22;47555;51.038;6.280;2022-09-27T00:12:31;10.30;99.90
25154;DHT22;47555;51.038;6.280;2022-09-27T00:14:57;10.20;99.90
25154;DHT22;47555;51.038;6.280;2022-09-27T00:17:22;10.20;99.90
25154;DHT22;47555;51.038;6.280;2022-09-27T00:19:48;10.20;99.90
25154;DHT22;47555;51.038;6.280;2022-09-27T00:22:13;10.20;99.90
25154;DHT22;47555;51.038;6.280;2022-09-27T00:24:39;10.20;99.90
25154;DHT22;47555;51.038;6.280;2022-09-27T00:27:04;10.20;99.90
25154;DHT22;47555;51.038;6.280;2022-09-27T00:29:30;10.20;99.90
25154;DHT22;47555;51.038;6.280;2022-09-27T00:31:56;10.30;99.90
25154;DHT22;47555;51.038;6.280;2022-09-27T00:34:24;10.20;99.90
25154;DHT22;47555;51.038;6.280;2022-09-27T00:36:50;10.20;99.90
25154;DHT22;47555;51.038;6.280;2022-09-27T00:39:17;10.20;99.90
25154;DHT22;47555;51.038;6.280;2022-09-27T00:41:42;10.20;99.90
25154;DHT22;47555;51.038;6.280;2022-09-27T00:49:42;10.20;99.90
25154;DHT22;47555;51.038;6.280;2022-09-27T00:52:11;10.20;99.90
25154;DHT22;47555;51.038;6.280;2022-09-27T00:54:41;10.10;99.90
25154;DHT22;47555;51.038;6.280;2022-09-27T00:57:09;10.10;99.90
25154;DHT22;47555;51.038;6.280;2022-09-27T00:59:38;10.10;99.90
25154;DHT22;47555;51.038;6.280;2022-09-27T01:02:06;10.10;99.90
25154;DHT22;47555;51.038;6.280;2022-09-27T01:04:33;10.10;99.90
25154;DHT22;47555;51.038;6.280;2022-09-27T01:07:00;10.10;99.90
25154;DHT22;47555;51.038;6.280;2022-09-27T01:09:26;10.10;99.90
25154;DHT22;47555;51.038;6.280;2022-09-27T01:27:08;10.10;99.90
25154;DHT22;47555;51.038;6.280;2022-09-27T01:29:49;10.10;99.90
25154;DHT22;47555;51.038;6.280;2022-09-27T01:32:25;10.10;99.90
25154;DHT22;47555;51.038;6.280;2022-09-27T01:35:05;10.10;99.90
25154;DHT22;47555;51.038;6.280;2022-09-27T01:38:10;10.10;99.90
25154;DHT22;47555;51.038;6.280;2022-09-27T01:43:20;10.10;99.90
25154;DHT22;47555;51.038;6.280;2022-09-27T01:45:49;10.10;99.90
25154;DHT22;47555;51.038;6.280;2022-09-27T01:48:22;10.10;99.90
25154;DHT22;47555;51.038;6.280;2022-09-27T01:51:19;10.10;99.90
25154;DHT22;47555;51.038;6.280;2022-09-27T01:53:50;10.10;99.90
25154;DHT22;47555;51.038;6.280;2022-09-27T01:56:54;10.00;99.90
25154;DHT22;47555;51.038;6.280;2022-09-27T01:59:36;10.00;99.90
25154;DHT22;47555;51.038;6.280;2022-09-27T02:02:08;10.00;99.90
25154;DHT22;47555;51.038;6.280;2022-09-27T02:04:37;10.00;99.90
25154;DHT22;47555;51.038;6.280;2022-09-27T02:07:28;10.00;99.90
25154;DHT22;47555;51.038;6.280;2022-09-27T02:09:59;10.00;99.90
25154;DHT22;47555;51.038;6.280;2022-09-27T02:12:30;9.90;99.90
25154;DHT22;47555;51.038;6.280;2022-09-27T02:15:11;9.90;99.90
25154;DHT22;47555;51.038;6.280;2022-09-27T02:17:56;9.90;99.90
25154;DHT22;47555;51.038;6.280;2022-09-27T02:20:31;9.80;99.90
25154;DHT22;47555;51.038;6.280;2022-09-27T02:23:21;9.80;99.90
25154;DHT22;47555;51.038;6.280;2022-09-27T02:25:57;9.80;99.90
25154;DHT22;47555;51.038;6.280;2022-09-27T02:28:34;9.80;99.90
25154;DHT22;47555;51.038;6.280;2022-09-27T02:31:02;9.70;99.90
25154;DHT22;47555;51.038;6.280;2022-09-27T02:33:48;9.80;99.90
25154;DHT22;47555;51.038;6.280;2022-09-27T02:36:14;9.70;99.90
25154;DHT22;47555;51.038;6.280;2022-09-27T02:38:43;9.70;99.90
25154;DHT22;47555;51.038;6.280;2022-09-27T02:41:17;9.60;99.90
25154;DHT22;47555;51.038;6.280;2022-09-27T02:43:45;9.60;99.90
25154;DHT22;47555;51.038;6.280;2022-09-27T02:57:44;9.60;99.90
25154;DHT22;47555;51.038;6.280;2022-09-27T03:00:20;9.70;99.90
25154;DHT22;47555;51.038;6.280;2022-09-27T03:05:29;9.60;99.90
25154;DHT22;47555;51.038;6.280;2022-09-27T03:07:55;9.60;99.90
25154;DHT22;47555;51.038;6.280;2022-09-27T03:10:23;9.60;99.90
25154;DHT22;47555;51.038;6.280;2022-09-27T03:12:49;9.60;99.90
25154;DHT22;47555;51.038;6.280;2022-09-27T03:15:15;9.40;99.90
25154;DHT22;47555;51.038;6.280;2022-09-27T03:17:41;9.60;99.90
25154;DHT22;47555;51.038;6.280;2022-09-27T03:20:07;9.50;99.90
25154;DHT22;47555;51.038;6.280;2022-09-27T03:22:36;9.50;99.90
25154;DHT22;47555;51.038;6.280;2022-09-27T03:25:03;9.50;99.90
25154;DHT22;47555;51.038;6.280;2022-09-27T03:27:29;9.50;99.90
25154;DHT22;47555;51.038;6.280;2022-09-27T03:29:55;9.50;99.90
25154;DHT22;47555;51.038;6.280;2022-09-27T03:32:20;9.50;99.90
25154;DHT22;47555;51.038;6.280;2022-09-27T03:34:46;9.50;99.90
25154;DHT22;47555;51.038;6.280;2022-09-27T03:37:12;9.40;99.90
25154;DHT22;47555;51.038;6.280;2022-09-27T03:39:37;9.40;99.90
25154;DHT22;47555;51.038;6.280;2022-09-27T03:42:03;9.40;99.90
25154;DHT22;47555;51.038;6.280;2022-09-27T03:44:28;9.40;99.90
25154;DHT22;47555;51.038;6.280;2022-09-27T03:46:54;9.40;99.90
25154;DHT22;47555;51.038;6.280;2022-09-27T03:49:20;9.30;99.90
25154;DHT22;47555;51.038;6.280;2022-09-27T03:51:45;9.30;99.90
25154;DHT22;47555;51.038;6.280;2022-09-27T03:54:11;9.30;99.90
25154;DHT22;47555;51.038;6.280;2022-09-27T03:56:36;9.30;99.90
25154;DHT22;47555;51.038;6.280;2022-09-27T03:59:02;9.30;99.90
25154;DHT22;47555;51.038;6.280;2022-09-27T04:01:28;9.40;99.90
25154;DHT22;47555;51.038;6.280;2022-09-27T04:03:53;9.30;99.90
25154;DHT22;47555;51.038;6.280;2022-09-27T04:06:19;9.30;99.90
25154;DHT22;47555;51.038;6.280;2022-09-27T04:08:45;9.30;99.90
25154;DHT22;47555;51.038;6.280;2022-09-27T04:11:11;9.20;99.90
25154;DHT22;47555;51.038;6.280;2022-09-27T04:13:38;9.30;99.90
25154;DHT22;47555;51.038;6.280;2022-09-27T04:16:04;9.20;99.90
25154;DHT22;47555;51.038;6.280;2022-09-27T04:18:29;9.20;99.90
25154;DHT22;47555;51.038;6.280;2022-09-27T04:20:55;9.20;99.90
25154;DHT22;47555;51.038;6.280;2022-09-27T04:23:20;9.20;99.90
25154;DHT22;47555;51.038;6.280;2022-09-27T04:25:46;9.10;99.90
25154;DHT22;47555;51.038;6.280;2022-09-27T04:28:12;9.10;99.90
25154;DHT22;47555;51.038;6.280;2022-09-27T04:30:38;9.10;99.90
25154;DHT22;47555;51.038;6.280;2022-09-27T04:33:04;9.10;99.90
25154;DHT22;47555;51.038;6.280;2022-09-27T04:35:30;9.10;99.90
25154;DHT22;47555;51.038;6.280;2022-09-27T04:38:14;9.00;99.90
25154;DHT22;47555;51.038;6.280;2022-09-27T04:40:40;9.00;99.90
25154;DHT22;47555;51.038;6.280;2022-09-27T04:43:06;9.00;99.90
25154;DHT22;47555;51.038;6.280;2022-09-27T04:45:32;9.00;99.90
25154;DHT22;47555;51.038;6.280;2022-09-27T04:47:58;9.00;99.90
25154;DHT22;47555;51.038;6.280;2022-09-27T04:50:23;9.00;99.90
25154;DHT22;47555;51.038;6.280;2022-09-27T04:52:53;9.00;99.90
25154;DHT22;47555;51.038;6.280;2022-09-27T04:55:19;9.00;99.90
25154;DHT22;47555;51.038;6.280;2022-09-27T04:57:46;9.00;99.90
25154;DHT22;47555;51.038;6.280;2022-09-27T05:00:12;8.90;99.90
25154;DHT22;47555;51.038;6.280;2022-09-27T05:02:38;8.90;99.90
25154;DHT22;47555;51.038;6.280;2022-09-27T05:05:04;8.90;99.90
25154;DHT22;47555;51.038;6.280;2022-09-27T05:07:32;8.90;99.90
25154;DHT22;47555;51.038;6.280;2022-09-27T05:09:58;8.90;99.90
25154;DHT22;47555;51.038;6.280;2022-09-27T05:12:24;8.90;99.90
25154;DHT22;47555;51.038;6.280;2022-09-27T05:14:51;8.90;99.90
25154;DHT22;47555;51.038;6.280;2022-09-27T05:17:17;8.90;99.90
25154;DHT22;47555;51.038;6.280;2022-09-27T05:19:44;9.00;99.90
25154;DHT22;47555;51.038;6.280;2022-09-27T05:22:10;9.00;99.90
25154;DHT22;47555;51.038;6.280;2022-09-27T05:24:36;9.10;99.90
25154;DHT22;47555;51.038;6.280;2022-09-27T05:27:03;9.00;99.90
25154;DHT22;47555;51.038;6.280;2022-09-27T05:29:33;9.00;99.90
25154;DHT22;47555;51.038;6.280;2022-09-27T05:31:59;9.00;99.90
25154;DHT22;47555;51.038;6.280;2022-09-27T05:34:25;9.00;99.90
25154;DHT22;47555;51.038;6.280;2022-09-27T05:36:51;9.00;99.90
25154;DHT22;47555;51.038;6.280;2022-09-27T05:39:16;9.10;99.90
25154;DHT22;47555;51.038;6.280;2022-09-27T05:41:42;9.10;99.90
25154;DHT22;47555;51.038;6.280;2022-09-27T05:44:08;9.10;99.90
25154;DHT22;47555;51.038;6.280;2022-09-27T05:46:34;9.10;99.90
25154;DHT22;47555;51.038;6.280;2022-09-27T05:49:00;9.10;99.90
25154;DHT22;47555;51.038;6.280;2022-09-27T05:51:25;9.10;99.90
25154;DHT22;47555;51.038;6.280;2022-09-27T05:53:51;9.10;99.90
25154;DHT22;47555;51.038;6.280;2022-09-27T05:56:16;9.10;99.90
25154;DHT22;47555;51.038;6.280;2022-09-27T05:58:42;9.10;99.90
25154;DHT22;47555;51.038;6.280;2022-09-27T06:01:08;9.10;99.90
25154;DHT22;47555;51.038;6.280;2022-09-27T06:03:34;9.10;99.90
25154;DHT22;47555;51.038;6.280;2022-09-27T06:06:03;9.10;99.90
25154;DHT22;47555;51.038;6.280;2022-09-27T06:08:33;9.10;99.90
25154;DHT22;47555;51.038;6.280;2022-09-27T06:11:08;9.10;99.90
25154;DHT22;47555;51.038;6.280;2022-09-27T06:13:34;9.10;99.90
25154;DHT22;47555;51.038;6.280;2022-09-27T06:16:08;9.10;99.90
25154;DHT22;47555;51.038;6.280;2022-09-27T06:18:35;9.10;99.90
25154;DHT22;47555;51.038;6.280;2022-09-27T06:21:02;9.10;99.90
25154;DHT22;47555;51.038;6.280;2022-09-27T06:23:28;9.10;99.90
25154;DHT22;47555;51.038;6.280;2022-09-27T06:26:00;9.10;99.90
25154;DHT22;47555;51.038;6.280;2022-09-27T06:28:27;9.10;99.90
25154;DHT22;47555;51.038;6.280;2022-09-27T06:30:52;9.10;99.90
25154;DHT22;47555;51.038;6.280;2022-09-27T06:33:19;9.10;99.90
25154;DHT22;47555;51.038;6.280;2022-09-27T06:35:45;9.00;99.90
25154;DHT22;47555;51.038;6.280;2022-09-27T06:38:13;9.10;99.90
25154;DHT22;47555;51.038;6.280;2022-09-27T06:40:41;9.10;99.90
25154;DHT22;47555;51.038;6.280;2022-09-27T06:43:11;9.10;99.90
25154;DHT22;47555;51.038;6.280;2022-09-27T06:45:37;9.00;99.90
25154;DHT22;47555;51.038;6.280;2022-09-27T06:48:05;9.10;99.90
25154;DHT22;47555;51.038;6.280;2022-09-27T06:50:32;9.00;99.90
25154;DHT22;47555;51.038;6.280;2022-09-27T06:52:59;9.10;99.90
25154;DHT22;47555;51.038;6.280;2022-09-27T06:55:25;9.00;99.90
25154;DHT22;47555;51.038;6.280;2022-09-27T06:57:58;9.10;99.90
25154;DHT22;47555;51.038;6.280;2022-09-27T07:00:42;9.10;99.90
25154;DHT22;47555;51.038;6.280;2022-09-27T07:03:09;9.00;99.90
25154;DHT22;47555;51.038;6.280;2022-09-27T07:05:37;9.00;99.90
25154;DHT22;47555;51.038;6.280;2022-09-27T07:08:02;9.10;99.90
25154;DHT22;47555;51.038;6.280;2022-09-27T07:10:30;9.10;99.90
25154;DHT22;47555;51.038;6.280;2022-09-27T07:13:05;9.20;99.90
25154;DHT22;47555;51.038;6.280;2022-09-27T07:15:32;9.30;99.90
25154;DHT22;47555;51.038;6.280;2022-09-27T07:18:00;9.30;99.90
25154;DHT22;47555;51.038;6.280;2022-09-27T07:20:26;9.40;99.90
25154;DHT22;47555;51.038;6.280;2022-09-27T07:22:53;9.50;99.90
25154;DHT22;47555;51.038;6.280;2022-09-27T07:25:19;9.50;99.90
25154;DHT22;47555;51.038;6.280;2022-09-27T07:27:45;9.60;99.90
25154;DHT22;47555;51.038;6.280;2022-09-27T07:30:11;9.60;99.90
25154;DHT22;47555;51.038;6.280;2022-09-27T07:32:37;9.60;99.90
25154;DHT22;47555;51.038;6.280;2022-09-27T07:35:04;9.70;99.90
25154;DHT22;47555;51.038;6.280;2022-09-27T07:37:32;9.70;99.90
25154;DHT22;47555;51.038;6.280;2022-09-27T07:39:58;9.80;99.90
25154;DHT22;47555;51.038;6.280;2022-09-27T07:42:24;9.80;99.90
25154;DHT22;47555;51.038;6.280;2022-09-27T07:44:50;9.80;99.90
25154;DHT22;47555;51.038;6.280;2022-09-27T07:47:15;9.90;99.90
25154;DHT22;47555;51.038;6.280;2022-09-27T07:49:43;9.90;99.90
25154;DHT22;47555;51.038;6.280;2022-09-27T07:52:09;10.00;99.90
25154;DHT22;47555;51.038;6.280;2022-09-27T07:54:35;9.90;99.90
25154;DHT22;47555;51.038;6.280;2022-09-27T07:57:01;10.00;99.90
25154;DHT22;47555;51.038;6.280;2022-09-27T07:59:27;10.00;99.90
25154;DHT22;47555;51.038;6.280;2022-09-27T08:01:53;10.00;99.90
25154;DHT22;47555;51.038;6.280;2022-09-27T08:04:20;10.00;99.90
25154;DHT22;47555;51.038;6.280;2022-09-27T08:06:46;10.00;99.90
25154;DHT22;47555;51.038;6.280;2022-09-27T08:09:11;10.10;99.90
25154;DHT22;47555;51.038;6.280;2022-09-27T08:11:37;10.10;99.90
25154;DHT22;47555;51.038;6.280;2022-09-27T08:14:03;10.30;99.90
25154;DHT22;47555;51.038;6.280;2022-09-27T08:16:31;10.30;99.90
25154;DHT22;47555;51.038;6.280;2022-09-27T08:18:57;10.40;99.90
25154;DHT22;47555;51.038;6.280;2022-09-27T08:21:22;10.40;99.90
25154;DHT22;47555;51.038;6.280;2022-09-27T08:23:48;10.50;99.90
25154;DHT22;47555;51.038;6.280;2022-09-27T08:26:14;10.50;99.90
25154;DHT22;47555;51.038;6.280;2022-09-27T08:28:39;10.50;99.90
25154;DHT22;47555;51.038;6.280;2022-09-27T08:31:05;10.50;99.90
25154;DHT22;47555;51.038;6.280;2022-09-27T08:33:30;10.60;99.90
25154;DHT22;47555;51.038;6.280;2022-09-27T08:35:56;10.50;99.90
25154;DHT22;47555;51.038;6.280;2022-09-27T08:38:21;10.50;99.90
25154;DHT22;47555;51.038;6.280;2022-09-27T08:41:00;10.50;99.90
25154;DHT22;47555;51.038;6.280;2022-09-27T08:46:10;10.80;99.90
25154;DHT22;47555;51.038;6.280;2022-09-27T08:48:37;11.00;99.90
25154;DHT22;47555;51.038;6.280;2022-09-27T08:51:05;11.00;99.90
25154;DHT22;47555;51.038;6.280;2022-09-27T08:56:02;11.10;99.90
25154;DHT22;47555;51.038;6.280;2022-09-27T08:58:43;11.00;99.90
25154;DHT22;47555;51.038;6.280;2022-09-27T09:01:13;11.00;99.90
25154;DHT22;47555;51.038;6.280;2022-09-27T09:03:53;10.90;99.90
25154;DHT22;47555;51.038;6.280;2022-09-27T09:06:27;11.00;99.90
25154;DHT22;47555;51.038;6.280;2022-09-27T09:20:38;10.90;99.90
25154;DHT22;47555;51.038;6.280;2022-09-27T09:23:52;10.90;99.90
25154;DHT22;47555;51.038;6.280;2022-09-27T09:28:45;10.90;99.90
25154;DHT22;47555;51.038;6.280;2022-09-27T09:31:45;10.90;99.90
25154;DHT22;47555;51.038;6.280;2022-09-27T09:36:56;10.90;99.90
25154;DHT22;47555;51.038;6.280;2022-09-27T09:39:33;10.90;99.90
25154;DHT22;47555;51.038;6.280;2022-09-27T09:44:30;10.90;99.90
25154;DHT22;47555;51.038;6.280;2022-09-27T09:47:01;10.80;99.90
25154;DHT22;47555;51.038;6.280;2022-09-27T09:49:42;10.80;99.90
25154;DHT22;47555;51.038;6.280;2022-09-27T09:52:19;11.00;99.90
25154;DHT22;47555;51.038;6.280;2022-09-27T09:54:52;10.80;99.90
25154;DHT22;47555;51.038;6.280;2022-09-27T10:00:19;10.80;99.90
25154;DHT22;47555;51.038;6.280;2022-09-27T10:02:46;10.70;99.90
25154;DHT22;47555;51.038;6.280;2022-09-27T10:05:15;10.70;99.90
25154;DHT22;47555;51.038;6.280;2022-09-27T10:07:42;10.60;99.90
25154;DHT22;47555;51.038;6.280;2022-09-27T10:10:14;10.60;99.90
25154;DHT22;47555;51.038;6.280;2022-09-27T10:12:41;10.60;99.90
25154;DHT22;47555;51.038;6.280;2022-09-27T10:15:13;10.60;99.90
25154;DHT22;47555;51.038;6.280;2022-09-27T10:17:44;10.70;99.90
25154;DHT22;47555;51.038;6.280;2022-09-27T10:20:29;10.70;99.90
25154;DHT22;47555;51.038;6.280;2022-09-27T10:22:59;10.70;99.90
25154;DHT22;47555;51.038;6.280;2022-09-27T10:25:45;10.80;99.90
25154;DHT22;47555;51.038;6.280;2022-09-27T10:28:26;10.90;99.90
25154;DHT22;47555;51.038;6.280;2022-09-27T10:30:55;10.80;99.90
25154;DHT22;47555;51.038;6.280;2022-09-27T10:33:21;10.80;99.90
25154;DHT22;47555;51.038;6.280;2022-09-27T10:35:48;10.90;99.90
25154;DHT22;47555;51.038;6.280;2022-09-27T10:40:43;10.90;99.90
25154;DHT22;47555;51.038;6.280;2022-09-27T10:43:33;10.90;99.90
25154;DHT22;47555;51.038;6.280;2022-09-27T10:48:34;10.90;99.90
25154;DHT22;47555;51.038;6.280;2022-09-27T10:51:03;11.00;99.90
25154;DHT22;47555;51.038;6.280;2022-09-27T10:53:30;11.00;99.90
25154;DHT22;47555;51.038;6.280;2022-09-27T10:55:57;11.00;99.90
25154;DHT22;47555;51.038;6.280;2022-09-27T10:58:34;11.10;99.90
25154;DHT22;47555;51.038;6.280;2022-09-27T11:01:05;11.00;99.90
25154;DHT22;47555;51.038;6.280;2022-09-27T11:03:35;11.10;99.90
25154;DHT22;47555;51.038;6.280;2022-09-27T11:08:46;11.10;99.90
25154;DHT22;47555;51.038;6.280;2022-09-27T11:13:39;11.30;99.90
25154;DHT22;47555;51.038;6.280;2022-09-27T11:21:37;11.50;99.90
25154;DHT22;47555;51.038;6.280;2022-09-27T11:32:21;11.60;99.90
25154;DHT22;47555;51.038;6.280;2022-09-27T11:35:21;11.70;99.90
25154;DHT22;47555;51.038;6.280;2022-09-27T11:46:12;11.90;99.90
25154;DHT22;47555;51.038;6.280;2022-09-27T11:55:06;11.70;99.90
25154;DHT22;47555;51.038;6.280;2022-09-27T11:57:37;11.60;99.90
25154;DHT22;47555;51.038;6.280;2022-09-27T12:00:15;11.50;99.90
25154;DHT22;47555;51.038;6.280;2022-09-27T12:03:06;11.30;99.90
25154;DHT22;47555;51.038;6.280;2022-09-27T12:05:56;11.20;99.90
25154;DHT22;47555;51.038;6.280;2022-09-27T12:11:44;11.10;99.90
25154;DHT22;47555;51.038;6.280;2022-09-27T12:14:24;11.20;99.90
25154;DHT22;47555;51.038;6.280;2022-09-27T12:16:53;11.20;99.90
25154;DHT22;47555;51.038;6.280;2022-09-27T12:19:31;11.30;99.90
25154;DHT22;47555;51.038;6.280;2022-09-27T12:22:02;11.20;99.90
25154;DHT22;47555;51.038;6.280;2022-09-27T12:24:29;11.20;99.90
25154;DHT22;47555;51.038;6.280;2022-09-27T12:26:59;11.20;99.90
25154;DHT22;47555;51.038;6.280;2022-09-27T12:29:29;11.10;99.90
25154;DHT22;47555;51.038;6.280;2022-09-27T12:37:34;10.90;99.90
25154;DHT22;47555;51.038;6.280;2022-09-27T12:40:05;10.80;99.90
25154;DHT22;47555;51.038;6.280;2022-09-27T12:42:37;10.80;99.90
25154;DHT22;47555;51.038;6.280;2022-09-27T12:45:04;10.80;99.90
25154;DHT22;47555;51.038;6.280;2022-09-27T12:47:34;10.80;99.90
25154;DHT22;47555;51.038;6.280;2022-09-27T12:52:53;10.70;99.90
25154;DHT22;47555;51.038;6.280;2022-09-27T12:55:42;10.70;99.90
25154;DHT22;47555;51.038;6.280;2022-09-27T12:58:28;10.70;99.90
25154;DHT22;47555;51.038;6.280;2022-09-27T13:01:03;10.70;99.90
25154;DHT22;47555;51.038;6.280;2022-09-27T13:06:57;10.60;99.90
25154;DHT22;47555;51.038;6.280;2022-09-27T13:09:41;10.60;99.90
25154;DHT22;47555;51.038;6.280;2022-09-27T13:12:34;10.60;99.90
25154;DHT22;47555;51.038;6.280;2022-09-27T13:15:28;10.70;99.90
25154;DHT22;47555;51.038;6.280;2022-09-27T13:17:56;10.70;99.90
25154;DHT22;47555;51.038;6.280;2022-09-27T13:22:58;10.70;99.90
25154;DHT22;47555;51.038;6.280;2022-09-27T13:30:58;10.80;99.90
25154;DHT22;47555;51.038;6.280;2022-09-27T13:36:26;10.90;99.90
25154;DHT22;47555;51.038;6.280;2022-09-27T13:41:37;10.90;99.90
25154;DHT22;47555;51.038;6.280;2022-09-27T13:44:32;10.90;99.90
25154;DHT22;47555;51.038;6.280;2022-09-27T13:49:50;11.10;99.90
25154;DHT22;47555;51.038;6.280;2022-09-27T13:54:53;11.30;99.90
25154;DHT22;47555;51.038;6.280;2022-09-27T14:00:26;11.70;99.90
25154;DHT22;47555;51.038;6.280;2022-09-27T14:05:54;11.80;99.90
25154;DHT22;47555;51.038;6.280;2022-09-27T14:08:29;11.70;99.90
25154;DHT22;47555;51.038;6.280;2022-09-27T14:10:56;11.80;99.90
25154;DHT22;47555;51.038;6.280;2022-09-27T14:13:24;11.80;99.90
25154;DHT22;47555;51.038;6.280;2022-09-27T14:15:51;11.80;99.90
25154;DHT22;47555;51.038;6.280;2022-09-27T14:18:18;11.80;99.90
25154;DHT22;47555;51.038;6.280;2022-09-27T14:20:45;11.70;99.90
25154;DHT22;47555;51.038;6.280;2022-09-27T14:23:22;11.70;99.90
25154;DHT22;47555;51.038;6.280;2022-09-27T14:25:50;11.60;99.90
25154;DHT22;47555;51.038;6.280;2022-09-27T14:31:22;11.50;99.90
25154;DHT22;47555;51.038;6.280;2022-09-27T14:33:49;11.30;99.90
25154;DHT22;47555;51.038;6.280;2022-09-27T14:36:30;11.20;99.90
25154;DHT22;47555;51.038;6.280;2022-09-27T14:39:24;11.20;99.90
25154;DHT22;47555;51.038;6.280;2022-09-27T14:41:53;11.10;99.90
25154;DHT22;47555;51.038;6.280;2022-09-27T14:44:20;11.00;99.90
25154;DHT22;47555;51.038;6.280;2022-09-27T14:46:46;10.90;99.90
25154;DHT22;47555;51.038;6.280;2022-09-27T14:49:23;10.90;99.90
25154;DHT22;47555;51.038;6.280;2022-09-27T14:51:55;10.80;99.90
25154;DHT22;47555;51.038;6.280;2022-09-27T14:54:27;10.80;99.90
25154;DHT22;47555;51.038;6.280;2022-09-27T14:56:55;10.80;99.90
25154;DHT22;47555;51.038;6.280;2022-09-27T14:59:29;10.80;99.90
25154;DHT22;47555;51.038;6.280;2022-09-27T15:02:03;10.70;99.90
25154;DHT22;47555;51.038;6.280;2022-09-27T15:04:34;10.60;99.90
25154;DHT22;47555;51.038;6.280;2022-09-27T15:07:01;10.60;99.90
25154;DHT22;47555;51.038;6.280;2022-09-27T15:09:27;10.60;99.90
25154;DHT22;47555;51.038;6.280;2022-09-27T15:11:57;10.60;99.90
25154;DHT22;47555;51.038;6.280;2022-09-27T15:14:25;10.70;99.90
25154;DHT22;47555;51.038;6.280;2022-09-27T15:16:54;10.70;99.90
25154;DHT22;47555;51.038;6.280;2022-09-27T15:19:25;10.70;99.90
25154;DHT22;47555;51.038;6.280;2022-09-27T15:21:52;10.80;99.90
25154;DHT22;47555;51.038;6.280;2022-09-27T15:24:37;10.80;99.90
25154;DHT22;47555;51.038;6.280;2022-09-27T15:27:15;10.80;99.90
25154;DHT22;47555;51.038;6.280;2022-09-27T15:29:48;10.80;99.90
25154;DHT22;47555;51.038;6.280;2022-09-27T15:32:16;10.80;99.90
25154;DHT22;47555;51.038;6.280;2022-09-27T15:34:43;10.80;99.90
25154;DHT22;47555;51.038;6.280;2022-09-27T15:37:27;10.80;99.90
25154;DHT22;47555;51.038;6.280;2022-09-27T15:39:53;10.80;99.90
25154;DHT22;47555;51.038;6.280;2022-09-27T15:42:18;10.80;99.90
25154;DHT22;47555;51.038;6.280;2022-09-27T15:44:49;10.70;99.90
25154;DHT22;47555;51.038;6.280;2022-09-27T15:52:46;10.60;99.90
25154;DHT22;47555;51.038;6.280;2022-09-27T15:55:14;10.60;99.90
25154;DHT22;47555;51.038;6.280;2022-09-27T15:57:42;10.60;99.90
25154;DHT22;47555;51.038;6.280;2022-09-27T16:00:17;10.50;99.90
25154;DHT22;47555;51.038;6.280;2022-09-27T16:02:44;10.50;99.90
25154;DHT22;47555;51.038;6.280;2022-09-27T16:05:10;10.50;99.90
25154;DHT22;47555;51.038;6.280;2022-09-27T16:07:35;10.40;99.90
25154;DHT22;47555;51.038;6.280;2022-09-27T16:10:04;10.40;99.90
25154;DHT22;47555;51.038;6.280;2022-09-27T16:12:34;10.40;99.90
25154;DHT22;47555;51.038;6.280;2022-09-27T16:14:59;10.40;99.90
25154;DHT22;47555;51.038;6.280;2022-09-27T16:17:25;10.40;99.90
25154;DHT22;47555;51.038;6.280;2022-09-27T16:19:50;10.40;99.90
25154;DHT22;47555;51.038;6.280;2022-09-27T16:22:15;10.30;99.90
25154;DHT22;47555;51.038;6.280;2022-09-27T16:24:41;10.30;99.90
25154;DHT22;47555;51.038;6.280;2022-09-27T16:27:06;10.30;99.90
25154;DHT22;47555;51.038;6.280;2022-09-27T16:29:32;10.30;99.90
25154;DHT22;47555;51.038;6.280;2022-09-27T16:31:58;10.20;99.90
25154;DHT22;47555;51.038;6.280;2022-09-27T16:34:23;10.20;99.90
25154;DHT22;47555;51.038;6.280;2022-09-27T16:36:49;10.20;99.90
25154;DHT22;47555;51.038;6.280;2022-09-27T16:39:14;10.20;99.90
25154;DHT22;47555;51.038;6.280;2022-09-27T16:41:40;10.20;99.90
25154;DHT22;47555;51.038;6.280;2022-09-27T16:44:08;10.20;99.90
25154;DHT22;47555;51.038;6.280;2022-09-27T16:46:33;10.20;99.90
25154;DHT22;47555;51.038;6.280;2022-09-27T16:49:00;10.20;99.90
25154;DHT22;47555;51.038;6.280;2022-09-27T16:51:25;10.20;99.90
25154;DHT22;47555;51.038;6.280;2022-09-27T16:54:09;10.20;99.90
25154;DHT22;47555;51.038;6.280;2022-09-27T16:56:35;10.20;99.90
25154;DHT22;47555;51.038;6.280;2022-09-27T16:59:02;10.10;99.90
25154;DHT22;47555;51.038;6.280;2022-09-27T17:01:31;10.10;99.90
25154;DHT22;47555;51.038;6.280;2022-09-27T17:03:57;10.20;99.90
25154;DHT22;47555;51.038;6.280;2022-09-27T17:06:24;10.20;99.90
25154;DHT22;47555;51.038;6.280;2022-09-27T17:08:50;10.20;99.90
25154;DHT22;47555;51.038;6.280;2022-09-27T17:11:17;10.10;99.90
25154;DHT22;47555;51.038;6.280;2022-09-27T17:13:44;10.00;99.90
25154;DHT22;47555;51.038;6.280;2022-09-27T17:16:12;10.10;99.90
25154;DHT22;47555;51.038;6.280;2022-09-27T17:18:39;10.10;99.90
25154;DHT22;47555;51.038;6.280;2022-09-27T17:21:05;10.10;99.90
25154;DHT22;47555;51.038;6.280;2022-09-27T17:23:32;10.10;99.90
25154;DHT22;47555;51.038;6.280;2022-09-27T17:26:18;10.10;99.90
25154;DHT22;47555;51.038;6.280;2022-09-27T17:28:45;10.10;99.90
25154;DHT22;47555;51.038;6.280;2022-09-27T17:31:12;10.10;99.90
25154;DHT22;47555;51.038;6.280;2022-09-27T17:33:42;10.10;99.90
25154;DHT22;47555;51.038;6.280;2022-09-27T17:36:20;10.10;99.90
25154;DHT22;47555;51.038;6.280;2022-09-27T17:38:48;10.10;99.90
25154;DHT22;47555;51.038;6.280;2022-09-27T17:41:16;10.10;99.90
25154;DHT22;47555;51.038;6.280;2022-09-27T17:43:43;10.10;99.90
25154;DHT22;47555;51.038;6.280;2022-09-27T17:46:20;10.00;99.90
25154;DHT22;47555;51.038;6.280;2022-09-27T17:48:47;10.00;99.90
25154;DHT22;47555;51.038;6.280;2022-09-27T17:51:32;10.00;99.90
25154;DHT22;47555;51.038;6.280;2022-09-27T17:53:58;10.00;99.90
25154;DHT22;47555;51.038;6.280;2022-09-27T17:56:24;10.00;99.90
25154;DHT22;47555;51.038;6.280;2022-09-27T17:58:53;10.00;99.90
25154;DHT22;47555;51.038;6.280;2022-09-27T18:01:20;10.00;99.90
25154;DHT22;47555;51.038;6.280;2022-09-27T18:03:46;9.90;99.90
25154;DHT22;47555;51.038;6.280;2022-09-27T18:06:13;9.90;99.90
25154;DHT22;47555;51.038;6.280;2022-09-27T18:08:39;9.90;99.90
25154;DHT22;47555;51.038;6.280;2022-09-27T18:11:07;9.90;99.90
25154;DHT22;47555;51.038;6.280;2022-09-27T18:13:33;9.90;99.90
25154;DHT22;47555;51.038;6.280;2022-09-27T18:16:15;9.90;99.90
25154;DHT22;47555;51.038;6.280;2022-09-27T18:18:43;9.90;99.90
25154;DHT22;47555;51.038;6.280;2022-09-27T18:21:14;9.90;99.90
25154;DHT22;47555;51.038;6.280;2022-09-27T18:23:40;9.90;99.90
25154;DHT22;47555;51.038;6.280;2022-09-27T18:26:07;9.80;99.90